sensor_id;sensor_type;location;lat;lon;timestamp;pressure;altitude;pressure_sealevel;temperature;humidity
50710;BME280;37033;49.994;21.992;2023-04-20T00:01:25;99341.45;;;8.26;79.94
50710;BME280;37033;49.994;21.992;2023-04-20T00:03:56;99340.19;;;8.22;80.09
50710;BME280;37033;49.994;21.992;2023-04-20T00:06:27;99338.46;;;8.17;79.91
50710;BME280;37033;49.994;21.992;2023-04-20T00:08:58;99341.58;;;8.10;79.97
50710;BME280;37033;49.994;21.992;2023-04-20T00:11:29;99342.91;;;8.03;79.94
50710;BME280;37033;49.994;21.992;2023-04-20T00:13:59;99338.89;;;7.98;79.97
50710;BME280;37033;49.994;21.992;2023-04-20T00:16:30;99339.16;;;7.92;79.84
50710;BME280;37033;49.994;21.992;2023-04-20T00:19:01;99337.10;;;7.86;80.03
50710;BME280;37033;49.994;21.992;2023-04-20T00:21:32;99336.27;;;7.80;79.77
50710;BME280;37033;49.994;21.992;2023-04-20T00:24:03;99334.58;;;7.74;79.97
50710;BME280;37033;49.994;21.992;2023-04-20T00:26:34;99326.21;;;7.68;80.07
50710;BME280;37033;49.994;21.992;2023-04-20T00:29:04;99326.84;;;7.64;80.01
50710;BME280;37033;49.994;21.992;2023-04-20T00:31:35;99325.15;;;7.59;80.08
50710;BME280;37033;49.994;21.992;2023-04-20T00:34:06;99326.89;;;7.55;80.11
50710;BME280;37033;49.994;21.992;2023-04-20T00:36:36;99326.39;;;7.51;80.07
50710;BME280;37033;49.994;21.992;2023-04-20T00:39:07;99327.72;;;7.47;80.04
50710;BME280;37033;49.994;21.992;2023-04-20T00:41:38;99324.98;;;7.41;79.95
50710;BME280;37033;49.994;21.992;2023-04-20T00:44:08;99330.27;;;7.35;80.06
50710;BME280;37033;49.994;21.992;2023-04-20T00:46:42;99331.36;;;7.31;80.21
50710;BME280;37033;49.994;21.992;2023-04-20T00:49:12;99328.94;;;7.27;80.18
50710;BME280;37033;49.994;21.992;2023-04-20T00:51:43;99327.42;;;7.23;80.16
50710;BME280;37033;49.994;21.992;2023-04-20T00:54:14;99329.11;;;7.21;80.28
50710;BME280;37033;49.994;21.992;2023-04-20T00:56:45;99330.52;;;7.17;80.47
50710;BME280;37033;49.994;21.992;2023-04-20T00:59:16;99330.70;;;7.15;80.40
50710;BME280;37033;49.994;21.992;2023-04-20T01:01:47;99330.15;;;7.12;80.53
50710;BME280;37033;49.994;21.992;2023-04-20T01:04:18;99330.45;;;7.10;80.56
50710;BME280;37033;49.994;21.992;2023-04-20T01:06:49;99327.42;;;7.08;80.79
50710;BME280;37033;49.994;21.992;2023-04-20T01:09:20;99326.82;;;7.06;80.83
50710;BME280;37033;49.994;21.992;2023-04-20T01:11:50;99327.70;;;7.04;80.96
50710;BME280;37033;49.994;21.992;2023-04-20T01:14:21;99326.66;;;7.01;80.75
50710;BME280;37033;49.994;21.992;2023-04-20T01:16:52;99327.43;;;6.99;80.83
50710;BME280;37033;49.994;21.992;2023-04-20T01:19:23;99322.95;;;6.96;80.95
50710;BME280;37033;49.994;21.992;2023-04-20T01:21:54;99319.90;;;6.93;81.07
50710;BME280;37033;49.994;21.992;2023-04-20T01:24:25;99319.81;;;6.91;81.08
50710;BME280;37033;49.994;21.992;2023-04-20T01:26:56;99315.95;;;6.88;81.13
50710;BME280;37033;49.994;21.992;2023-04-20T01:29:27;99317.36;;;6.87;81.30
50710;BME280;37033;49.994;21.992;2023-04-20T01:31:58;99316.00;;;6.86;81.18
50710;BME280;37033;49.994;21.992;2023-04-20T01:34:28;99315.38;;;6.84;81.31
50710;BME280;37033;49.994;21.992;2023-04-20T01:36:59;99313.15;;;6.82;81.43
50710;BME280;37033;49.994;21.992;2023-04-20T01:39:30;99313.41;;;6.80;81.53
50710;BME280;37033;49.994;21.992;2023-04-20T01:42:01;99312.90;;;6.79;81.50
50710;BME280;37033;49.994;21.992;2023-04-20T01:44:32;99309.91;;;6.77;81.77
50710;BME280;37033;49.994;21.992;2023-04-20T01:47:03;99308.84;;;6.77;81.84
50710;BME280;37033;49.994;21.992;2023-04-20T01:49:34;99310.83;;;6.76;81.81
50710;BME280;37033;49.994;21.992;2023-04-20T01:52:05;99310.67;;;6.74;81.91
50710;BME280;37033;49.994;21.992;2023-04-20T01:54:35;99312.34;;;6.74;81.96
50710;BME280;37033;49.994;21.992;2023-04-20T01:57:06;99318.66;;;6.74;82.06
50710;BME280;37033;49.994;21.992;2023-04-20T01:59:37;99320.92;;;6.72;82.09
50710;BME280;37033;49.994;21.992;2023-04-20T02:02:08;99327.63;;;6.70;82.12
50710;BME280;37033;49.994;21.992;2023-04-20T02:04:38;99326.51;;;6.68;82.19
50710;BME280;37033;49.994;21.992;2023-04-20T02:07:09;99323.64;;;6.67;82.17
50710;BME280;37033;49.994;21.992;2023-04-20T02:09:40;99325.12;;;6.65;82.33
50710;BME280;37033;49.994;21.992;2023-04-20T02:12:11;99328.44;;;6.63;82.31
50710;BME280;37033;49.994;21.992;2023-04-20T02:14:41;99330.83;;;6.62;82.49
50710;BME280;37033;49.994;21.992;2023-04-20T02:17:12;99326.73;;;6.60;82.48
50710;BME280;37033;49.994;21.992;2023-04-20T02:19:43;99326.15;;;6.59;82.61
50710;BME280;37033;49.994;21.992;2023-04-20T02:22:15;99324.70;;;6.60;82.71
50710;BME280;37033;49.994;21.992;2023-04-20T02:24:45;99325.66;;;6.58;82.68
50710;BME280;37033;49.994;21.992;2023-04-20T02:27:16;99328.23;;;6.57;82.88
50710;BME280;37033;49.994;21.992;2023-04-20T02:29:47;99326.16;;;6.58;82.97
50710;BME280;37033;49.994;21.992;2023-04-20T02:32:17;99323.45;;;6.58;83.02
50710;BME280;37033;49.994;21.992;2023-04-20T02:34:48;99324.20;;;6.58;83.04
50710;BME280;37033;49.994;21.992;2023-04-20T02:37:19;99324.33;;;6.58;83.08
50710;BME280;37033;49.994;21.992;2023-04-20T02:39:49;99325.46;;;6.58;83.07
50710;BME280;37033;49.994;21.992;2023-04-20T02:42:20;99327.07;;;6.58;83.24
50710;BME280;37033;49.994;21.992;2023-04-20T02:44:51;99332.06;;;6.58;83.29
50710;BME280;37033;49.994;21.992;2023-04-20T02:47:21;99331.22;;;6.59;83.25
50710;BME280;37033;49.994;21.992;2023-04-20T02:49:52;99328.52;;;6.58;83.11
50710;BME280;37033;49.994;21.992;2023-04-20T02:52:23;99333.80;;;6.56;83.22
50710;BME280;37033;49.994;21.992;2023-04-20T02:54:54;99335.48;;;6.56;83.30
50710;BME280;37033;49.994;21.992;2023-04-20T02:57:24;99335.23;;;6.55;83.43
50710;BME280;37033;49.994;21.992;2023-04-20T02:59:55;99341.21;;;6.54;83.48
50710;BME280;37033;49.994;21.992;2023-04-20T03:02:26;99338.84;;;6.55;83.43
50710;BME280;37033;49.994;21.992;2023-04-20T03:04:56;99336.65;;;6.53;83.49
50710;BME280;37033;49.994;21.992;2023-04-20T03:07:27;99339.09;;;6.54;83.68
50710;BME280;37033;49.994;21.992;2023-04-20T03:09:58;99336.61;;;6.54;83.54
50710;BME280;37033;49.994;21.992;2023-04-20T03:12:28;99341.61;;;6.53;83.56
50710;BME280;37033;49.994;21.992;2023-04-20T03:15:00;99337.49;;;6.53;83.51
50710;BME280;37033;49.994;21.992;2023-04-20T03:17:30;99336.57;;;6.51;83.57
50710;BME280;37033;49.994;21.992;2023-04-20T03:20:01;99338.66;;;6.51;83.77
50710;BME280;37033;49.994;21.992;2023-04-20T03:22:32;99338.55;;;6.50;83.75
50710;BME280;37033;49.994;21.992;2023-04-20T03:25:03;99342.11;;;6.50;83.85
50710;BME280;37033;49.994;21.992;2023-04-20T03:27:34;99344.82;;;6.51;83.75
50710;BME280;37033;49.994;21.992;2023-04-20T03:30:07;99342.56;;;6.51;83.98
50710;BME280;37033;49.994;21.992;2023-04-20T03:32:38;99340.83;;;6.52;83.98
50710;BME280;37033;49.994;21.992;2023-04-20T03:35:11;99339.02;;;6.52;83.94
50710;BME280;37033;49.994;21.992;2023-04-20T03:37:42;99341.32;;;6.51;83.93
50710;BME280;37033;49.994;21.992;2023-04-20T03:40:15;99349.55;;;6.51;84.03
50710;BME280;37033;49.994;21.992;2023-04-20T03:42:46;99350.95;;;6.51;84.02
50710;BME280;37033;49.994;21.992;2023-04-20T03:45:17;99357.14;;;6.51;84.18
50710;BME280;37033;49.994;21.992;2023-04-20T03:47:48;99352.58;;;6.50;84.07
50710;BME280;37033;49.994;21.992;2023-04-20T03:50:19;99356.91;;;6.50;84.18
50710;BME280;37033;49.994;21.992;2023-04-20T03:52:52;99355.70;;;6.50;84.15
50710;BME280;37033;49.994;21.992;2023-04-20T03:55:23;99356.66;;;6.51;84.28
50710;BME280;37033;49.994;21.992;2023-04-20T03:57:54;99357.31;;;6.51;84.41
50710;BME280;37033;49.994;21.992;2023-04-20T04:00:27;99360.34;;;6.53;84.54
50710;BME280;37033;49.994;21.992;2023-04-20T04:02:58;99361.08;;;6.54;84.69
50710;BME280;37033;49.994;21.992;2023-04-20T04:05:29;99360.61;;;6.56;84.71
50710;BME280;37033;49.994;21.992;2023-04-20T04:08:02;99356.84;;;6.58;84.75
50710;BME280;37033;49.994;21.992;2023-04-20T04:10:33;99352.32;;;6.60;84.94
50710;BME280;37033;49.994;21.992;2023-04-20T04:13:04;99351.59;;;6.62;84.86
50710;BME280;37033;49.994;21.992;2023-04-20T04:15:35;99352.46;;;6.64;84.86
50710;BME280;37033;49.994;21.992;2023-04-20T04:18:06;99351.98;;;6.66;84.96
50710;BME280;37033;49.994;21.992;2023-04-20T04:20:37;99352.61;;;6.67;84.73
50710;BME280;37033;49.994;21.992;2023-04-20T04:23:07;99351.57;;;6.69;85.09
50710;BME280;37033;49.994;21.992;2023-04-20T04:25:39;99359.52;;;6.73;85.28
50710;BME280;37033;49.994;21.992;2023-04-20T04:28:10;99363.45;;;6.76;85.33
50710;BME280;37033;49.994;21.992;2023-04-20T04:30:42;99367.67;;;6.79;85.14
50710;BME280;37033;49.994;21.992;2023-04-20T04:33:16;99365.54;;;6.81;85.20
50710;BME280;37033;49.994;21.992;2023-04-20T04:35:52;99368.84;;;6.83;85.19
50710;BME280;37033;49.994;21.992;2023-04-20T04:38:23;99368.95;;;6.86;85.30
50710;BME280;37033;49.994;21.992;2023-04-20T04:40:57;99372.89;;;6.89;85.25
50710;BME280;37033;49.994;21.992;2023-04-20T04:43:27;99374.45;;;6.92;85.46
50710;BME280;37033;49.994;21.992;2023-04-20T04:46:04;99379.30;;;6.95;85.50
50710;BME280;37033;49.994;21.992;2023-04-20T04:48:35;99376.40;;;6.99;85.58
50710;BME280;37033;49.994;21.992;2023-04-20T04:51:09;99385.43;;;7.02;85.56
50710;BME280;37033;49.994;21.992;2023-04-20T04:53:39;99381.48;;;7.05;85.62
50710;BME280;37033;49.994;21.992;2023-04-20T04:56:13;99383.16;;;7.08;85.65
50710;BME280;37033;49.994;21.992;2023-04-20T04:58:47;99384.43;;;7.10;85.78
50710;BME280;37033;49.994;21.992;2023-04-20T05:01:18;99382.86;;;7.14;85.88
50710;BME280;37033;49.994;21.992;2023-04-20T05:03:49;99381.63;;;7.18;85.93
50710;BME280;37033;49.994;21.992;2023-04-20T05:06:22;99385.67;;;7.22;86.08
50710;BME280;37033;49.994;21.992;2023-04-20T05:08:56;99385.88;;;7.27;86.10
50710;BME280;37033;49.994;21.992;2023-04-20T05:11:26;99387.96;;;7.33;86.10
50710;BME280;37033;49.994;21.992;2023-04-20T05:13:57;99392.20;;;7.38;86.19
50710;BME280;37033;49.994;21.992;2023-04-20T05:16:29;99394.48;;;7.44;86.29
50710;BME280;37033;49.994;21.992;2023-04-20T05:18:59;99399.17;;;7.50;86.40
50710;BME280;37033;49.994;21.992;2023-04-20T05:21:33;99399.67;;;7.55;86.39
50710;BME280;37033;49.994;21.992;2023-04-20T05:24:04;99399.33;;;7.61;86.25
50710;BME280;37033;49.994;21.992;2023-04-20T05:26:38;99402.52;;;7.67;86.35
50710;BME280;37033;49.994;21.992;2023-04-20T05:29:09;99407.08;;;7.74;86.47
50710;BME280;37033;49.994;21.992;2023-04-20T05:31:39;99409.73;;;7.81;86.46
50710;BME280;37033;49.994;21.992;2023-04-20T05:34:10;99412.38;;;7.87;86.53
50710;BME280;37033;49.994;21.992;2023-04-20T05:36:41;99409.23;;;7.93;86.32
50710;BME280;37033;49.994;21.992;2023-04-20T05:39:12;99410.77;;;7.98;86.41
50710;BME280;37033;49.994;21.992;2023-04-20T05:41:43;99412.75;;;8.03;86.38
50710;BME280;37033;49.994;21.992;2023-04-20T05:44:14;99418.14;;;8.09;86.36
50710;BME280;37033;49.994;21.992;2023-04-20T05:46:45;99416.87;;;8.16;86.27
50710;BME280;37033;49.994;21.992;2023-04-20T05:49:18;99416.77;;;8.22;86.31
50710;BME280;37033;49.994;21.992;2023-04-20T05:51:49;99419.30;;;8.29;86.25
50710;BME280;37033;49.994;21.992;2023-04-20T05:54:20;99421.55;;;8.36;86.21
50710;BME280;37033;49.994;21.992;2023-04-20T05:56:51;99419.80;;;8.43;86.15
50710;BME280;37033;49.994;21.992;2023-04-20T05:59:22;99422.45;;;8.50;86.11
50710;BME280;37033;49.994;21.992;2023-04-20T06:01:53;99426.00;;;8.57;86.25
50710;BME280;37033;49.994;21.992;2023-04-20T06:04:27;99426.56;;;8.66;86.29
50710;BME280;37033;49.994;21.992;2023-04-20T06:06:58;99432.09;;;8.73;86.12
50710;BME280;37033;49.994;21.992;2023-04-20T06:09:29;99434.17;;;8.80;85.91
50710;BME280;37033;49.994;21.992;2023-04-20T06:12:00;99431.73;;;8.85;85.94
50710;BME280;37033;49.994;21.992;2023-04-20T06:14:31;99429.94;;;8.92;85.90
50710;BME280;37033;49.994;21.992;2023-04-20T06:17:01;99430.85;;;8.98;85.78
50710;BME280;37033;49.994;21.992;2023-04-20T06:19:32;99428.17;;;9.05;85.68
50710;BME280;37033;49.994;21.992;2023-04-20T06:22:06;99427.87;;;9.11;85.68
50710;BME280;37033;49.994;21.992;2023-04-20T06:24:37;99425.08;;;9.19;85.68
50710;BME280;37033;49.994;21.992;2023-04-20T06:27:10;99422.83;;;9.27;85.37
50710;BME280;37033;49.994;21.992;2023-04-20T06:29:41;99424.66;;;9.30;85.21
50710;BME280;37033;49.994;21.992;2023-04-20T06:32:12;99424.23;;;9.35;84.76
50710;BME280;37033;49.994;21.992;2023-04-20T06:34:42;99429.21;;;9.35;84.52
50710;BME280;37033;49.994;21.992;2023-04-20T06:37:13;99430.38;;;9.36;84.63
50710;BME280;37033;49.994;21.992;2023-04-20T06:39:44;99432.98;;;9.38;84.35
50710;BME280;37033;49.994;21.992;2023-04-20T06:42:15;99435.01;;;9.38;84.35
50710;BME280;37033;49.994;21.992;2023-04-20T06:44:46;99431.70;;;9.39;84.34
50710;BME280;37033;49.994;21.992;2023-04-20T06:47:17;99435.98;;;9.41;84.14
50710;BME280;37033;49.994;21.992;2023-04-20T06:49:48;99435.86;;;9.42;84.09
50710;BME280;37033;49.994;21.992;2023-04-20T06:52:19;99435.59;;;9.44;84.15
50710;BME280;37033;49.994;21.992;2023-04-20T06:54:49;99436.95;;;9.46;84.05
50710;BME280;37033;49.994;21.992;2023-04-20T06:57:20;99435.80;;;9.47;84.04
50710;BME280;37033;49.994;21.992;2023-04-20T06:59:51;99435.46;;;9.47;83.91
50710;BME280;37033;49.994;21.992;2023-04-20T07:02:22;99437.23;;;9.47;83.80
50710;BME280;37033;49.994;21.992;2023-04-20T07:04:52;99439.93;;;9.46;83.71
50710;BME280;37033;49.994;21.992;2023-04-20T07:07:29;99441.05;;;9.50;83.81
50710;BME280;37033;49.994;21.992;2023-04-20T07:10:00;99439.55;;;9.53;83.84
50710;BME280;37033;49.994;21.992;2023-04-20T07:12:30;99438.40;;;9.54;83.76
50710;BME280;37033;49.994;21.992;2023-04-20T07:15:02;99440.08;;;9.56;83.85
50710;BME280;37033;49.994;21.992;2023-04-20T07:17:33;99436.52;;;9.58;83.83
50710;BME280;37033;49.994;21.992;2023-04-20T07:20:05;99442.65;;;9.59;83.73
50710;BME280;37033;49.994;21.992;2023-04-20T07:22:37;99441.34;;;9.61;83.51
50710;BME280;37033;49.994;21.992;2023-04-20T07:25:09;99440.33;;;9.64;83.60
50710;BME280;37033;49.994;21.992;2023-04-20T07:27:40;99441.58;;;9.69;83.52
50710;BME280;37033;49.994;21.992;2023-04-20T07:30:12;99445.70;;;9.78;83.76
50710;BME280;37033;49.994;21.992;2023-04-20T07:32:43;99445.48;;;9.86;83.69
50710;BME280;37033;49.994;21.992;2023-04-20T07:35:14;99445.98;;;9.95;83.64
50710;BME280;37033;49.994;21.992;2023-04-20T07:37:44;99451.10;;;10.05;83.40
50710;BME280;37033;49.994;21.992;2023-04-20T07:40:15;99450.52;;;10.13;83.20
50710;BME280;37033;49.994;21.992;2023-04-20T07:42:46;99453.00;;;10.21;83.15
50710;BME280;37033;49.994;21.992;2023-04-20T07:45:17;99456.08;;;10.28;82.81
50710;BME280;37033;49.994;21.992;2023-04-20T07:47:48;99452.40;;;10.35;82.74
50710;BME280;37033;49.994;21.992;2023-04-20T07:50:19;99457.62;;;10.43;82.54
50710;BME280;37033;49.994;21.992;2023-04-20T07:52:50;99455.23;;;10.50;82.40
50710;BME280;37033;49.994;21.992;2023-04-20T07:55:21;99450.95;;;10.58;82.15
50710;BME280;37033;49.994;21.992;2023-04-20T07:57:52;99451.70;;;10.66;82.10
50710;BME280;37033;49.994;21.992;2023-04-20T08:00:23;99454.70;;;10.74;82.03
50710;BME280;37033;49.994;21.992;2023-04-20T08:02:54;99453.23;;;10.82;81.88
50710;BME280;37033;49.994;21.992;2023-04-20T08:05:25;99450.41;;;10.89;81.42
50710;BME280;37033;49.994;21.992;2023-04-20T08:07:55;99447.49;;;10.95;81.19
50710;BME280;37033;49.994;21.992;2023-04-20T08:10:27;99448.38;;;11.04;81.35
50710;BME280;37033;49.994;21.992;2023-04-20T08:12:57;99448.24;;;11.14;80.87
50710;BME280;37033;49.994;21.992;2023-04-20T08:15:28;99452.17;;;11.24;80.93
50710;BME280;37033;49.994;21.992;2023-04-20T08:17:59;99453.63;;;11.35;79.96
50710;BME280;37033;49.994;21.992;2023-04-20T08:20:30;99453.52;;;11.45;80.14
50710;BME280;37033;49.994;21.992;2023-04-20T08:23:01;99450.20;;;11.54;79.56
50710;BME280;37033;49.994;21.992;2023-04-20T08:25:31;99451.95;;;11.65;79.89
50710;BME280;37033;49.994;21.992;2023-04-20T08:28:02;99451.27;;;11.80;79.58
50710;BME280;37033;49.994;21.992;2023-04-20T08:30:33;99449.11;;;11.94;79.40
50710;BME280;37033;49.994;21.992;2023-04-20T08:33:04;99452.70;;;12.07;78.68
50710;BME280;37033;49.994;21.992;2023-04-20T08:35:34;99450.77;;;12.21;79.29
50710;BME280;37033;49.994;21.992;2023-04-20T08:38:05;99455.44;;;12.43;79.40
50710;BME280;37033;49.994;21.992;2023-04-20T08:40:36;99456.55;;;12.69;79.63
50710;BME280;37033;49.994;21.992;2023-04-20T08:43:07;99453.52;;;12.89;78.65
50710;BME280;37033;49.994;21.992;2023-04-20T08:45:38;99448.25;;;13.01;77.42
50710;BME280;37033;49.994;21.992;2023-04-20T08:48:11;99446.31;;;13.10;76.67
50710;BME280;37033;49.994;21.992;2023-04-20T08:50:42;99442.55;;;13.20;76.75
50710;BME280;37033;49.994;21.992;2023-04-20T08:53:13;99441.05;;;13.36;76.36
50710;BME280;37033;49.994;21.992;2023-04-20T08:55:44;99438.09;;;13.46;75.69
50710;BME280;37033;49.994;21.992;2023-04-20T08:58:15;99430.64;;;13.57;75.59
50710;BME280;37033;49.994;21.992;2023-04-20T09:00:49;99430.57;;;13.74;74.57
50710;BME280;37033;49.994;21.992;2023-04-20T09:03:32;99425.36;;;13.87;74.12
50710;BME280;37033;49.994;21.992;2023-04-20T09:06:03;99426.86;;;14.08;74.87
50710;BME280;37033;49.994;21.992;2023-04-20T09:08:36;99431.14;;;14.30;73.55
50710;BME280;37033;49.994;21.992;2023-04-20T09:11:16;99429.14;;;14.40;71.99
50710;BME280;37033;49.994;21.992;2023-04-20T09:14:02;99428.33;;;14.53;72.45
50710;BME280;37033;49.994;21.992;2023-04-20T09:16:33;99426.16;;;14.68;71.45
50710;BME280;37033;49.994;21.992;2023-04-20T09:19:04;99431.16;;;14.74;70.34
50710;BME280;37033;49.994;21.992;2023-04-20T09:21:34;99427.91;;;14.80;69.88
50710;BME280;37033;49.994;21.992;2023-04-20T09:24:06;99430.34;;;14.87;68.59
50710;BME280;37033;49.994;21.992;2023-04-20T09:26:37;99427.45;;;14.93;67.98
50710;BME280;37033;49.994;21.992;2023-04-20T09:29:18;99423.87;;;15.00;66.11
50710;BME280;37033;49.994;21.992;2023-04-20T09:31:49;99426.40;;;15.08;67.60
50710;BME280;37033;49.994;21.992;2023-04-20T09:34:22;99427.54;;;15.26;66.12
50710;BME280;37033;49.994;21.992;2023-04-20T09:36:53;99426.34;;;15.39;65.71
50710;BME280;37033;49.994;21.992;2023-04-20T09:39:28;99420.39;;;15.55;66.08
50710;BME280;37033;49.994;21.992;2023-04-20T09:42:04;99421.97;;;15.66;65.90
50710;BME280;37033;49.994;21.992;2023-04-20T09:44:38;99418.38;;;15.76;64.24
50710;BME280;37033;49.994;21.992;2023-04-20T09:47:16;99417.50;;;15.75;64.75
50710;BME280;37033;49.994;21.992;2023-04-20T09:49:48;99413.01;;;15.86;62.92
50710;BME280;37033;49.994;21.992;2023-04-20T09:52:20;99413.00;;;15.90;61.45
50710;BME280;37033;49.994;21.992;2023-04-20T09:54:52;99412.13;;;15.83;61.27
50710;BME280;37033;49.994;21.992;2023-04-20T09:57:25;99409.20;;;15.86;61.30
50710;BME280;37033;49.994;21.992;2023-04-20T09:59:57;99405.33;;;15.85;61.65
50710;BME280;37033;49.994;21.992;2023-04-20T10:02:29;99406.31;;;15.88;61.51
50710;BME280;37033;49.994;21.992;2023-04-20T10:05:00;99406.66;;;15.83;60.92
50710;BME280;37033;49.994;21.992;2023-04-20T10:07:31;99403.84;;;15.73;59.58
50710;BME280;37033;49.994;21.992;2023-04-20T10:10:09;99400.44;;;15.59;59.61
50710;BME280;37033;49.994;21.992;2023-04-20T10:12:50;99406.20;;;15.49;57.18
50710;BME280;37033;49.994;21.992;2023-04-20T10:15:22;99405.69;;;15.34;57.20
50710;BME280;37033;49.994;21.992;2023-04-20T10:17:55;99403.81;;;15.23;57.06
50710;BME280;37033;49.994;21.992;2023-04-20T10:20:27;99404.51;;;15.16;56.81
50710;BME280;37033;49.994;21.992;2023-04-20T10:23:08;99403.45;;;15.10;56.40
50710;BME280;37033;49.994;21.992;2023-04-20T10:25:39;99397.81;;;15.03;56.12
50710;BME280;37033;49.994;21.992;2023-04-20T10:28:10;99398.45;;;15.01;56.54
50710;BME280;37033;49.994;21.992;2023-04-20T10:30:52;99398.91;;;15.12;56.98
50710;BME280;37033;49.994;21.992;2023-04-20T10:33:22;99394.73;;;15.32;56.65
50710;BME280;37033;49.994;21.992;2023-04-20T10:35:54;99393.42;;;15.49;56.08
50710;BME280;37033;49.994;21.992;2023-04-20T10:38:31;99391.40;;;15.70;56.00
50710;BME280;37033;49.994;21.992;2023-04-20T10:41:07;99384.92;;;15.89;55.17
50710;BME280;37033;49.994;21.992;2023-04-20T10:43:38;99382.98;;;16.07;54.93
50710;BME280;37033;49.994;21.992;2023-04-20T10:46:21;99382.47;;;16.31;54.28
50710;BME280;37033;49.994;21.992;2023-04-20T10:48:53;99375.18;;;16.55;54.57
50710;BME280;37033;49.994;21.992;2023-04-20T10:51:25;99377.71;;;16.78;52.29
50710;BME280;37033;49.994;21.992;2023-04-20T10:54:06;99372.48;;;16.94;49.73
50710;BME280;37033;49.994;21.992;2023-04-20T10:56:41;99374.30;;;17.11;48.81
50710;BME280;37033;49.994;21.992;2023-04-20T10:59:13;99364.60;;;17.29;47.99
50710;BME280;37033;49.994;21.992;2023-04-20T11:01:45;99364.81;;;17.38;46.82
50710;BME280;37033;49.994;21.992;2023-04-20T11:04:16;99364.44;;;17.39;43.42
50710;BME280;37033;49.994;21.992;2023-04-20T11:06:47;99370.70;;;17.30;42.68
50710;BME280;37033;49.994;21.992;2023-04-20T11:09:19;99364.02;;;17.21;43.67
50710;BME280;37033;49.994;21.992;2023-04-20T11:12:00;99363.34;;;17.22;43.81
50710;BME280;37033;49.994;21.992;2023-04-20T11:14:33;99364.11;;;17.30;43.52
50710;BME280;37033;49.994;21.992;2023-04-20T11:17:05;99364.00;;;17.38;42.46
50710;BME280;37033;49.994;21.992;2023-04-20T11:19:36;99357.05;;;17.33;41.82
50710;BME280;37033;49.994;21.992;2023-04-20T11:22:07;99364.80;;;17.27;43.09
50710;BME280;37033;49.994;21.992;2023-04-20T11:24:38;99363.79;;;17.22;42.10
50710;BME280;37033;49.994;21.992;2023-04-20T11:27:19;99361.84;;;17.10;41.30
50710;BME280;37033;49.994;21.992;2023-04-20T11:29:58;99364.27;;;16.98;40.58
50710;BME280;37033;49.994;21.992;2023-04-20T11:32:33;99363.13;;;16.88;41.46
50710;BME280;37033;49.994;21.992;2023-04-20T11:35:06;99362.77;;;16.85;40.75
50710;BME280;37033;49.994;21.992;2023-04-20T11:37:47;99367.33;;;16.83;40.06
50710;BME280;37033;49.994;21.992;2023-04-20T11:40:19;99364.13;;;16.81;40.52
50710;BME280;37033;49.994;21.992;2023-04-20T11:42:50;99363.87;;;16.84;40.47
50710;BME280;37033;49.994;21.992;2023-04-20T11:45:21;99357.95;;;16.83;39.88
50710;BME280;37033;49.994;21.992;2023-04-20T11:47:52;99362.33;;;16.80;39.72
50710;BME280;37033;49.994;21.992;2023-04-20T11:50:23;99364.22;;;16.74;39.35
50710;BME280;37033;49.994;21.992;2023-04-20T11:52:54;99361.80;;;16.81;39.96
50710;BME280;37033;49.994;21.992;2023-04-20T11:55:24;99360.45;;;16.97;40.17
50710;BME280;37033;49.994;21.992;2023-04-20T11:57:55;99355.39;;;17.14;40.42
50710;BME280;37033;49.994;21.992;2023-04-20T12:00:26;99355.04;;;17.31;39.70
50710;BME280;37033;49.994;21.992;2023-04-20T12:02:57;99345.42;;;17.49;39.23
50710;BME280;37033;49.994;21.992;2023-04-20T12:05:28;99345.59;;;17.62;39.27
50710;BME280;37033;49.994;21.992;2023-04-20T12:07:58;99346.06;;;17.66;38.08
50710;BME280;37033;49.994;21.992;2023-04-20T12:10:29;99344.98;;;17.56;38.14
50710;BME280;37033;49.994;21.992;2023-04-20T12:13:00;99342.02;;;17.49;37.96
50710;BME280;37033;49.994;21.992;2023-04-20T12:15:31;99342.95;;;17.38;37.65
50710;BME280;37033;49.994;21.992;2023-04-20T12:18:02;99346.67;;;17.26;38.16
50710;BME280;37033;49.994;21.992;2023-04-20T12:20:33;99338.02;;;17.20;39.25
50710;BME280;37033;49.994;21.992;2023-04-20T12:23:04;99344.80;;;17.20;38.82
50710;BME280;37033;49.994;21.992;2023-04-20T12:25:34;99343.17;;;17.14;38.15
50710;BME280;37033;49.994;21.992;2023-04-20T12:28:05;99343.00;;;17.09;38.39
50710;BME280;37033;49.994;21.992;2023-04-20T12:30:36;99341.77;;;17.06;39.42
50710;BME280;37033;49.994;21.992;2023-04-20T12:33:06;99340.64;;;17.10;40.19
50710;BME280;37033;49.994;21.992;2023-04-20T12:35:37;99338.61;;;17.16;40.02
50710;BME280;37033;49.994;21.992;2023-04-20T12:38:08;99338.40;;;17.16;39.98
50710;BME280;37033;49.994;21.992;2023-04-20T12:40:41;99334.41;;;17.13;40.31
50710;BME280;37033;49.994;21.992;2023-04-20T12:43:12;99338.60;;;17.11;40.66
50710;BME280;37033;49.994;21.992;2023-04-20T12:45:43;99337.44;;;17.11;40.91
50710;BME280;37033;49.994;21.992;2023-04-20T12:48:13;99336.10;;;17.14;40.82
50710;BME280;37033;49.994;21.992;2023-04-20T12:50:44;99330.80;;;17.18;40.60
50710;BME280;37033;49.994;21.992;2023-04-20T12:53:15;99331.38;;;17.21;39.88
50710;BME280;37033;49.994;21.992;2023-04-20T12:55:46;99329.75;;;17.19;40.07
50710;BME280;37033;49.994;21.992;2023-04-20T12:58:16;99331.17;;;17.19;40.81
50710;BME280;37033;49.994;21.992;2023-04-20T13:00:47;99329.36;;;17.20;39.15
50710;BME280;37033;49.994;21.992;2023-04-20T13:03:18;99332.55;;;17.11;39.08
50710;BME280;37033;49.994;21.992;2023-04-20T13:05:52;99327.99;;;17.04;39.18
50710;BME280;37033;49.994;21.992;2023-04-20T13:08:22;99326.48;;;17.07;40.19
50710;BME280;37033;49.994;21.992;2023-04-20T13:10:53;99324.40;;;17.28;40.28
50710;BME280;37033;49.994;21.992;2023-04-20T13:13:24;99321.08;;;17.44;39.00
50710;BME280;37033;49.994;21.992;2023-04-20T13:15:55;99315.17;;;17.59;38.76
50710;BME280;37033;49.994;21.992;2023-04-20T13:18:25;99315.17;;;17.83;38.93